Time,TemperatureF,DewpointF,PressureIn,WindDirection,WindDirectionDegrees,WindSpeedMPH,WindSpeedGustMPH,Humidity,HourlyPrecipIn,Conditions,Clouds,dailyrainin,SolarRadiationWatts/m^2,SoftwareType,DateUTC
2013-04-19 00:00:00,60.0,58.0,29.86,NW,311,3.0,4.0,93,0.00,,,0.00,0,Wunderground v.1.15,2013-04-19 04:00:00,
2013-04-19 00:01:00,60.0,58.0,29.85,NW,306,3.0,4.0,93,0.00,,,0.00,0,Wunderground v.1.15,2013-04-19 04:01:00,
2013-04-19 00:02:00,60.0,58.0,29.85,NW,309,4.0,4.0,93,0.00,,,0.00,0,Wunderground v.1.15,2013-04-19 04:02:00,
2013-04-19 00:04:00,59.9,57.9,29.86,NW,309,4.0,5.0,93,0.00,,,0.00,0,Wunderground v.1.15,2013-04-19 04:04:00,
2013-04-19 00:07:00,59.8,57.8,29.85,NW,319,4.0,5.0,93,0.00,,,0.00,0,Wunderground v.1.15,2013-04-19 04:07:00,
2013-04-19 00:08:00,59.8,57.8,29.85,NW,318,4.0,5.0,93,0.00,,,0.00,0,Wunderground v.1.15,2013-04-19 04:08:00,
2013-04-19 00:13:00,59.6,57.9,29.85,WNW,298,5.0,6.0,94,0.00,,,0.00,0,Wunderground v.1.15,2013-04-19 04:13:00,
2013-04-19 00:19:00,59.5,57.8,29.85,NW,310,4.0,6.0,94,0.00,,,0.00,0,Wunderground v.1.15,2013-04-19 04:19:00,
2013-04-19 00:24:00,59.4,57.7,29.85,NW,309,4.0,4.0,94,0.00,,,0.00,0,Wunderground v.1.15,2013-04-19 04:24:00,
2013-04-19 00:29:00,59.2,57.5,29.84,NW,314,3.0,5.0,94,0.00,,,0.00,0,Wunderground v.1.15,2013-04-19 04:29:00,
2013-04-19 00:35:00,59.1,57.4,29.84,NW,304,4.0,5.0,94,0.00,,,0.00,0,Wunderground v.1.15,2013-04-19 04:35:00,
2013-04-19 00:40:00,58.9,57.2,29.84,NW,305,3.0,3.0,94,0.00,,,0.00,0,Wunderground v.1.15,2013-04-19 04:40:00,
2013-04-19 00:45:00,58.8,57.4,29.84,NW,304,4.0,6.0,95,0.00,,,0.00,0,Wunderground v.1.15,2013-04-19 04:45:00,
2013-04-19 00:51:00,58.7,57.3,29.83,North,360,4.0,4.0,95,0.00,,,0.00,0,Wunderground v.1.15,2013-04-19 04:51:00,
2013-04-19 00:56:00,58.6,57.2,29.83,NW,309,2.0,4.0,95,0.00,,,0.00,0,Wunderground v.1.15,2013-04-19 04:56:00,
2013-04-19 01:02:00,58.4,57.0,29.84,NW,309,2.0,6.0,95,0.00,,,0.00,0,Wunderground v.1.15,2013-04-19 05:02:00,
2013-04-19 01:07:00,58.3,57.2,29.84,NW,318,3.0,6.0,96,0.00,,,0.00,0,Wunderground v.1.15,2013-04-19 05:07:00,
2013-04-19 01:13:00,58.2,57.1,29.83,NW,322,3.0,4.0,96,0.00,,,0.00,0,Wunderground v.1.15,2013-04-19 05:13:00,
2013-04-19 01:18:00,58.1,57.0,29.83,NW,323,1.0,4.0,96,0.00,,,0.00,0,Wunderground v.1.15,2013-04-19 05:18:00,
2013-04-19 01:23:00,57.9,56.8,29.82,NW,321,0.0,0.0,96,0.00,,,0.00,0,Wunderground v.1.15,2013-04-19 05:23:00,
2013-04-19 01:29:00,57.7,56.6,29.82,NW,322,0.0,2.0,96,0.00,,,0.00,0,Wunderground v.1.15,2013-04-19 05:29:00,
2013-04-19 01:34:00,57.6,56.8,29.81,NW,323,0.0,0.0,97,0.00,,,0.00,0,Wunderground v.1.15,2013-04-19 05:34:00,
2013-04-19 01:39:00,57.5,56.7,29.81,NW,323,0.0,1.0,97,0.00,,,0.00,0,Wunderground v.1.15,2013-04-19 05:39:00,
2013-04-19 01:44:00,57.4,56.6,29.81,NW,323,1.0,2.0,97,0.00,,,0.00,0,Wunderground v.1.15,2013-04-19 05:44:00,
2013-04-19 01:50:00,57.4,56.6,29.80,NW,321,0.0,0.0,97,0.00,,,0.00,0,Wunderground v.1.15,2013-04-19 05:50:00,
2013-04-19 01:55:00,57.2,56.6,29.80,NW,322,0.0,2.0,98,0.00,,,0.00,0,Wunderground v.1.15,2013-04-19 05:55:00,
2013-04-19 02:00:00,57.1,56.5,29.80,NW,323,1.0,1.0,98,0.00,,,0.00,0,Wunderground v.1.15,2013-04-19 06:00:00,
2013-04-19 02:06:00,57.1,56.5,29.79,NW,324,0.0,2.0,98,0.00,,,0.00,0,Wunderground v.1.15,2013-04-19 06:06:00,
2013-04-19 02:12:00,57.0,56.7,29.79,NW,321,1.0,3.0,99,0.00,,,0.00,0,Wunderground v.1.15,2013-04-19 06:12:00,
2013-04-19 02:17:00,57.1,56.8,29.79,NW,323,2.0,3.0,99,0.00,,,0.00,0,Wunderground v.1.15,2013-04-19 06:17:00,
2013-04-19 02:22:00,57.2,56.9,29.79,NW,321,1.0,3.0,99,0.00,,,0.00,0,Wunderground v.1.15,2013-04-19 06:22:00,
2013-04-19 02:28:00,57.3,57.0,29.79,NW,319,1.0,3.0,99,0.00,,,0.00,0,Wunderground v.1.15,2013-04-19 06:28:00,
2013-04-19 02:33:00,57.4,57.1,29.79,NW,321,1.0,1.0,99,0.00,,,0.00,0,Wunderground v.1.15,2013-04-19 06:33:00,
2013-04-19 02:38:00,57.5,57.2,29.79,West,277,0.0,1.0,99,0.00,,,0.00,0,Wunderground v.1.15,2013-04-19 06:38:00,
2013-04-19 02:44:00,57.6,57.3,29.78,West,274,1.0,3.0,99,0.00,,,0.00,0,Wunderground v.1.15,2013-04-19 06:44:00,
2013-04-19 02:49:00,57.8,57.5,29.77,West,275,2.0,4.0,99,0.00,,,0.00,0,Wunderground v.1.15,2013-04-19 06:49:00,
2013-04-19 02:54:00,57.8,57.5,29.77,West,275,1.0,4.0,99,0.00,,,0.00,0,Wunderground v.1.15,2013-04-19 06:54:00,
2013-04-19 03:00:00,57.8,57.2,29.76,West,271,3.0,4.0,98,0.00,,,0.00,0,Wunderground v.1.15,2013-04-19 07:00:00,
2013-04-19 03:06:00,57.8,57.2,29.76,WNW,301,4.0,5.0,98,0.00,,,0.00,0,Wunderground v.1.15,2013-04-19 07:06:00,
2013-04-19 03:11:00,57.8,57.2,29.76,NW,325,3.0,3.0,98,0.00,,,0.00,0,Wunderground v.1.15,2013-04-19 07:11:00,
2013-04-19 03:16:00,57.9,57.3,29.76,NNW,327,2.0,3.0,98,0.00,,,0.00,0,Wunderground v.1.15,2013-04-19 07:16:00,
2013-04-19 03:22:00,57.9,57.6,29.75,NW,314,3.0,5.0,99,0.00,,,0.00,0,Wunderground v.1.15,2013-04-19 07:22:00,
2013-04-19 03:27:00,57.9,57.6,29.75,North,360,3.0,5.0,99,0.00,,,0.00,0,Wunderground v.1.15,2013-04-19 07:27:00,
2013-04-19 03:32:00,58.0,57.7,29.75,NW,312,2.0,3.0,99,0.00,,,0.00,0,Wunderground v.1.15,2013-04-19 07:32:00,
2013-04-19 03:38:00,58.1,57.5,29.75,WNW,301,1.0,3.0,98,0.00,,,0.00,0,Wunderground v.1.15,2013-04-19 07:38:00,
2013-04-19 03:43:00,58.1,57.3,29.75,WNW,300,1.0,1.0,97,0.00,,,0.00,0,Wunderground v.1.15,2013-04-19 07:43:00,
2013-04-19 03:48:00,58.1,57.3,29.75,WNW,298,0.0,1.0,97,0.00,,,0.00,0,Wunderground v.1.15,2013-04-19 07:48:00,
2013-04-19 03:53:00,58.0,57.2,29.75,WNW,299,1.0,3.0,97,0.00,,,0.00,0,Wunderground v.1.15,2013-04-19 07:53:00,
2013-04-19 03:59:00,57.9,57.1,29.75,NW,311,3.0,5.0,97,0.00,,,0.00,0,Wunderground v.1.15,2013-04-19 07:59:00,
2013-04-19 04:05:00,57.9,57.1,29.75,NW,318,4.0,6.0,97,0.00,,,0.00,0,Wunderground v.1.15,2013-04-19 08:05:00,
2013-04-19 04:10:00,58.0,57.2,29.75,NW,317,4.0,4.0,97,0.00,,,0.00,0,Wunderground v.1.15,2013-04-19 08:10:00,
2013-04-19 04:15:00,57.9,57.1,29.75,NW,318,3.0,4.0,97,0.00,,,0.00,0,Wunderground v.1.15,2013-04-19 08:15:00,
2013-04-19 04:21:00,57.8,57.0,29.74,NW,319,2.0,2.0,97,0.00,,,0.00,0,Wunderground v.1.15,2013-04-19 08:21:00,
2013-04-19 04:26:00,57.6,56.8,29.74,NW,319,1.0,4.0,97,0.00,,,0.00,0,Wunderground v.1.15,2013-04-19 08:26:00,
2013-04-19 04:31:00,57.4,56.6,29.74,NW,319,2.0,2.0,97,0.00,,,0.00,0,Wunderground v.1.15,2013-04-19 08:31:00,
2013-04-19 04:37:00,57.2,56.6,29.73,NW,317,1.0,2.0,98,0.00,,,0.00,0,Wunderground v.1.15,2013-04-19 08:37:00,
2013-04-19 04:42:00,56.9,56.3,29.73,NW,309,1.0,5.0,98,0.00,,,0.00,0,Wunderground v.1.15,2013-04-19 08:42:00,
2013-04-19 04:47:00,56.8,56.5,29.73,WNW,292,4.0,7.0,99,0.00,,,0.00,0,Wunderground v.1.15,2013-04-19 08:47:00,
2013-04-19 04:53:00,56.7,56.7,29.73,West,275,4.0,4.0,100,0.00,,,0.00,0,Wunderground v.1.15,2013-04-19 08:53:00,
2013-04-19 04:58:00,56.8,56.8,29.73,SSW,211,3.0,4.0,100,0.00,,,0.00,0,Wunderground v.1.15,2013-04-19 08:58:00,
2013-04-19 05:04:00,57.2,57.2,29.73,SW,234,4.0,9.0,100,0.00,,,0.00,0,Wunderground v.1.15,2013-04-19 09:04:00,
2013-04-19 05:09:00,57.4,57.4,29.73,SSW,210,4.0,9.0,100,0.00,,,0.00,0,Wunderground v.1.15,2013-04-19 09:09:00,
2013-04-19 05:14:00,57.7,57.7,29.73,SW,220,5.0,7.0,100,0.00,,,0.00,0,Wunderground v.1.15,2013-04-19 09:14:00,
2013-04-19 05:20:00,58.0,58.0,29.73,South,191,6.0,6.0,100,0.00,,,0.00,0,Wunderground v.1.15,2013-04-19 09:20:00,
2013-04-19 05:25:00,58.4,58.4,29.73,SSW,203,6.0,14.0,100,0.00,,,0.00,0,Wunderground v.1.15,2013-04-19 09:25:00,
2013-04-19 05:31:00,59.7,59.7,29.73,SSW,194,7.0,12.0,100,0.00,,,0.00,0,Wunderground v.1.15,2013-04-19 09:31:00,
2013-04-19 05:36:00,61.1,60.2,29.73,SSE,159,6.0,12.0,97,0.00,,,0.00,0,Wunderground v.1.15,2013-04-19 09:36:00,
2013-04-19 05:41:00,62.2,60.8,29.73,SSW,194,6.0,6.0,95,0.00,,,0.00,0,Wunderground v.1.15,2013-04-19 09:41:00,
2013-04-19 05:46:00,62.9,60.8,29.73,SSW,201,6.0,8.0,93,0.00,,,0.00,0,Wunderground v.1.15,2013-04-19 09:46:00,
2013-04-19 05:52:00,63.3,60.9,29.73,South,186,6.0,6.0,92,0.00,,,0.00,0,Wunderground v.1.15,2013-04-19 09:52:00,
2013-04-19 05:57:00,63.6,60.9,29.73,SSW,209,5.0,7.0,91,0.00,,,0.00,0,Wunderground v.1.15,2013-04-19 09:57:00,
2013-04-19 06:03:00,63.7,61.0,29.73,SW,225,4.0,5.0,91,0.00,,,0.00,0,Wunderground v.1.15,2013-04-19 10:03:00,
2013-04-19 06:08:00,63.6,60.9,29.73,SSW,205,3.0,5.0,91,0.00,,,0.00,0,Wunderground v.1.15,2013-04-19 10:08:00,
2013-04-19 06:14:00,63.4,61.0,29.72,SSW,202,2.0,4.0,92,0.00,,,0.00,0,Wunderground v.1.15,2013-04-19 10:14:00,
2013-04-19 06:19:00,63.1,61.0,29.72,SSE,160,4.0,9.0,93,0.00,,,0.00,0,Wunderground v.1.15,2013-04-19 10:19:00,
2013-04-19 06:24:00,62.9,60.8,29.72,SSW,194,5.0,7.0,93,0.00,,,0.00,0,Wunderground v.1.15,2013-04-19 10:24:00,
2013-04-19 06:30:00,62.8,60.7,29.71,SE,144,7.0,13.0,93,0.00,,,0.00,0,Wunderground v.1.15,2013-04-19 10:30:00,
2013-04-19 06:35:00,63.3,60.9,29.71,South,178,8.0,13.0,92,0.00,,,0.00,0,Wunderground v.1.15,2013-04-19 10:35:00,
2013-04-19 06:40:00,63.8,61.1,29.71,South,188,7.0,7.0,91,0.00,,,0.00,5,Wunderground v.1.15,2013-04-19 10:40:00,
2013-04-19 06:46:00,64.2,61.2,29.71,SSE,165,7.0,11.0,90,0.00,,,0.00,11,Wunderground v.1.15,2013-04-19 10:46:00,
2013-04-19 06:51:00,64.5,61.2,29.71,North,360,7.0,7.0,89,0.00,,,0.00,16,Wunderground v.1.15,2013-04-19 10:51:00,
2013-04-19 06:57:00,64.6,61.3,29.71,South,169,5.0,11.0,89,0.00,,,0.00,19,Wunderground v.1.15,2013-04-19 10:57:00,
2013-04-19 07:02:00,64.6,61.3,29.71,South,186,5.0,7.0,89,0.00,,,0.00,19,Wunderground v.1.15,2013-04-19 11:02:00,
2013-04-19 07:08:00,64.6,61.3,29.71,North,360,5.0,12.0,89,0.00,,,0.00,19,Wunderground v.1.15,2013-04-19 11:08:00,
2013-04-19 07:13:00,64.6,61.3,29.71,SW,219,5.0,6.0,89,0.00,,,0.00,19,Wunderground v.1.15,2013-04-19 11:13:00,
2013-04-19 07:19:00,64.6,61.3,29.71,SSE,153,4.0,10.0,89,0.00,,,0.00,23,Wunderground v.1.15,2013-04-19 11:19:00,
2013-04-19 07:24:00,64.7,61.4,29.71,South,176,6.0,8.0,89,0.00,,,0.00,21,Wunderground v.1.15,2013-04-19 11:24:00,
2013-04-19 07:29:00,64.7,61.4,29.71,SSW,207,7.0,15.0,89,0.00,,,0.00,23,Wunderground v.1.15,2013-04-19 11:29:00,
2013-04-19 07:35:00,64.8,61.5,29.70,SE,126,6.0,7.0,89,0.00,,,0.00,28,Wunderground v.1.15,2013-04-19 11:35:00,
2013-04-19 07:40:00,64.8,61.5,29.71,South,175,5.0,6.0,89,0.00,,,0.00,30,Wunderground v.1.15,2013-04-19 11:40:00,
2013-04-19 07:45:00,64.9,61.6,29.71,SSE,158,5.0,6.0,89,0.00,,,0.00,40,Wunderground v.1.15,2013-04-19 11:45:00,
2013-04-19 07:50:00,65.1,61.5,29.70,South,181,5.0,5.0,88,0.00,,,0.00,42,Wunderground v.1.15,2013-04-19 11:50:00,
2013-04-19 07:56:00,65.2,61.6,29.71,South,189,5.0,10.0,88,0.00,,,0.00,62,Wunderground v.1.15,2013-04-19 11:56:00,
2013-04-19 08:02:00,65.2,61.6,29.70,SE,133,4.0,5.0,88,0.00,,,0.00,54,Wunderground v.1.15,2013-04-19 12:02:00,
2013-04-19 08:07:00,65.2,61.6,29.69,South,171,3.0,10.0,88,0.00,,,0.00,58,Wunderground v.1.15,2013-04-19 12:07:00,
2013-04-19 08:12:00,65.3,61.7,29.70,SE,146,4.0,6.0,88,0.00,,,0.00,67,Wunderground v.1.15,2013-04-19 12:12:00,
2013-04-19 08:18:00,65.5,61.5,29.69,South,178,4.0,9.0,87,0.00,,,0.00,86,Wunderground v.1.15,2013-04-19 12:18:00,
2013-04-19 08:23:00,65.8,61.8,29.69,SSW,200,4.0,5.0,87,0.00,,,0.00,109,Wunderground v.1.15,2013-04-19 12:23:00,
2013-04-19 08:28:00,66.0,62.0,29.69,SSE,157,4.0,5.0,87,0.00,,,0.00,130,Wunderground v.1.15,2013-04-19 12:28:00,
2013-04-19 08:34:00,66.3,62.3,29.68,SSE,167,2.0,3.0,87,0.00,,,0.00,146,Wunderground v.1.15,2013-04-19 12:34:00,
2013-04-19 08:39:00,66.6,62.3,29.68,South,172,3.0,8.0,86,0.00,,,0.00,158,Wunderground v.1.15,2013-04-19 12:39:00,
2013-04-19 08:44:00,66.9,62.6,29.68,SSW,198,5.0,7.0,86,0.00,,,0.00,132,Wunderground v.1.15,2013-04-19 12:44:00,
2013-04-19 08:50:00,67.1,62.1,29.67,SE,134,5.0,5.0,84,0.00,,,0.00,153,Wunderground v.1.15,2013-04-19 12:50:00,
2013-04-19 08:55:00,67.3,62.6,29.67,SSE,160,5.0,8.0,85,0.00,,,0.00,107,Wunderground v.1.15,2013-04-19 12:55:00,
2013-04-19 09:00:00,67.5,62.2,29.67,SSW,195,5.0,5.0,83,0.00,,,0.00,77,Wunderground v.1.15,2013-04-19 13:00:00,
2013-04-19 09:06:00,67.7,62.7,29.67,South,186,2.0,5.0,84,0.00,,,0.00,74,Wunderground v.1.15,2013-04-19 13:06:00,
2013-04-19 09:12:00,67.7,62.7,29.67,SSE,159,4.0,7.0,84,0.00,,,0.00,93,Wunderground v.1.15,2013-04-19 13:12:00,
2013-04-19 09:17:00,67.7,62.3,29.67,South,190,5.0,7.0,83,0.00,,,0.00,95,Wunderground v.1.15,2013-04-19 13:17:00,
2013-04-19 09:22:00,67.8,62.1,29.67,South,182,5.0,10.0,82,0.00,,,0.00,98,Wunderground v.1.15,2013-04-19 13:22:00,
2013-04-19 09:28:00,68.0,62.6,29.66,South,188,7.0,12.0,83,0.00,,,0.00,171,Wunderground v.1.15,2013-04-19 13:28:00,
2013-04-19 09:33:00,68.2,62.8,29.65,SSE,163,7.0,8.0,83,0.00,,,0.00,199,Wunderground v.1.15,2013-04-19 13:33:00,
2013-04-19 09:38:00,68.6,62.9,29.65,SSE,153,6.0,9.0,82,0.00,,,0.00,153,Wunderground v.1.15,2013-04-19 13:38:00,
2013-04-19 09:44:00,68.9,62.5,29.65,South,183,7.0,9.0,80,0.00,,,0.00,109,Wunderground v.1.15,2013-04-19 13:44:00,
2013-04-19 09:49:00,69.0,62.6,29.65,South,179,6.0,9.0,80,0.00,,,0.00,102,Wunderground v.1.15,2013-04-19 13:49:00,
2013-04-19 09:54:00,69.0,63.3,29.65,SSW,205,6.0,7.0,82,0.00,,,0.00,109,Wunderground v.1.15,2013-04-19 13:54:00,
2013-04-19 10:00:00,69.1,62.7,29.65,SW,217,8.0,8.0,80,0.00,,,0.00,128,Wunderground v.1.15,2013-04-19 14:00:00,
2013-04-19 10:06:00,69.4,62.6,29.65,South,170,12.0,21.0,79,0.00,,,0.00,171,Wunderground v.1.15,2013-04-19 14:06:00,
2013-04-19 10:11:00,69.7,62.5,29.65,South,178,12.0,12.0,78,0.00,,,0.00,190,Wunderground v.1.15,2013-04-19 14:11:00,
2013-04-19 10:16:00,70.0,62.8,29.65,South,183,11.0,13.0,78,0.00,,,0.00,221,Wunderground v.1.15,2013-04-19 14:16:00,
2013-04-19 10:22:00,70.3,63.1,29.65,SSW,213,12.0,16.0,78,0.00,,,0.00,232,Wunderground v.1.15,2013-04-19 14:22:00,
2013-04-19 10:27:00,70.6,63.0,29.64,SW,215,13.0,16.0,77,0.00,,,0.00,308,Wunderground v.1.15,2013-04-19 14:27:00,
2013-04-19 10:32:00,70.9,63.3,29.65,SSE,155,12.0,21.0,77,0.00,,,0.00,230,Wunderground v.1.15,2013-04-19 14:32:00,
2013-04-19 10:38:00,71.2,63.2,29.64,SW,216,12.0,22.0,76,0.00,,,0.00,373,Wunderground v.1.15,2013-04-19 14:38:00,
2013-04-19 10:43:00,71.8,64.2,29.63,SSW,205,11.0,20.0,77,0.00,,,0.00,696,Wunderground v.1.15,2013-04-19 14:43:00,
2013-04-19 10:49:00,72.9,65.3,29.64,SSW,204,10.0,24.0,77,0.00,,,0.00,714,Wunderground v.1.15,2013-04-19 14:49:00,
2013-04-19 10:54:00,73.4,64.6,29.63,South,189,11.0,24.0,74,0.00,,,0.00,777,Wunderground v.1.15,2013-04-19 14:54:00,
2013-04-19 10:59:00,73.8,64.2,29.63,South,179,11.0,24.0,72,0.00,,,0.00,287,Wunderground v.1.15,2013-04-19 14:59:00,
2013-04-19 11:05:00,73.4,64.2,29.63,SSW,197,12.0,16.0,73,0.00,,,0.00,216,Wunderground v.1.15,2013-04-19 15:05:00,
2013-04-19 11:10:00,73.1,64.3,29.63,South,182,12.0,24.0,74,0.00,,,0.00,388,Wunderground v.1.15,2013-04-19 15:10:00,
2013-04-19 11:16:00,73.3,65.3,29.62,SW,221,11.0,24.0,76,0.00,,,0.00,406,Wunderground v.1.15,2013-04-19 15:16:00,
2013-04-19 11:21:00,73.5,64.7,29.62,South,184,9.0,10.0,74,0.00,,,0.00,334,Wunderground v.1.15,2013-04-19 15:21:00,
2013-04-19 11:27:00,73.6,64.8,29.63,SSW,197,9.0,22.0,74,0.00,,,0.00,313,Wunderground v.1.15,2013-04-19 15:27:00,
2013-04-19 11:32:00,73.7,64.5,29.63,North,360,12.0,18.0,73,0.00,,,0.00,241,Wunderground v.1.15,2013-04-19 15:32:00,
2013-04-19 11:37:00,73.6,64.0,29.63,SSW,194,14.0,27.0,72,0.00,,,0.00,197,Wunderground v.1.15,2013-04-19 15:37:00,
2013-04-19 11:42:00,73.3,64.1,29.62,South,188,15.0,27.0,73,0.00,,,0.00,174,Wunderground v.1.15,2013-04-19 15:42:00,
2013-04-19 11:48:00,73.1,63.9,29.62,North,360,14.0,27.0,73,0.00,,,0.00,264,Wunderground v.1.15,2013-04-19 15:48:00,
2013-04-19 11:53:00,73.3,64.5,29.61,SSE,167,11.0,18.0,74,0.00,,,0.00,190,Wunderground v.1.15,2013-04-19 15:53:00,
2013-04-19 11:59:00,73.3,64.1,29.61,North,360,12.0,19.0,73,0.00,,,0.00,188,Wunderground v.1.15,2013-04-19 15:59:00,
2013-04-19 12:05:00,73.5,64.3,29.61,SSW,212,14.0,15.0,73,0.00,,,0.00,318,Wunderground v.1.15,2013-04-19 16:05:00,
2013-04-19 12:10:00,73.8,64.6,29.61,SSW,196,13.0,17.0,73,0.00,,,0.00,250,Wunderground v.1.15,2013-04-19 16:10:00,
2013-04-19 12:15:00,74.0,64.4,29.60,SW,232,14.0,25.0,72,0.00,,,0.00,223,Wunderground v.1.15,2013-04-19 16:15:00,
2013-04-19 12:20:00,74.1,64.5,29.60,SW,215,13.0,13.0,72,0.00,,,0.00,294,Wunderground v.1.15,2013-04-19 16:20:00,
2013-04-19 12:26:00,74.2,64.6,29.60,South,177,11.0,13.0,72,0.00,,,0.00,135,Wunderground v.1.15,2013-04-19 16:26:00,
2013-04-19 12:31:00,74.3,64.7,29.59,South,179,11.0,11.0,72,0.00,,,0.00,301,Wunderground v.1.15,2013-04-19 16:31:00,
2013-04-19 12:36:00,74.4,64.8,29.59,SSW,205,11.0,16.0,72,0.00,,,0.00,269,Wunderground v.1.15,2013-04-19 16:36:00,
2013-04-19 12:42:00,74.4,64.8,29.58,SSW,195,11.0,11.0,72,0.00,,,0.00,171,Wunderground v.1.15,2013-04-19 16:42:00,
2013-04-19 12:47:00,74.2,64.6,29.59,South,171,11.0,14.0,72,0.00,,,0.00,116,Wunderground v.1.15,2013-04-19 16:47:00,
2013-04-19 12:52:00,74.0,64.8,29.58,SSW,205,12.0,17.0,73,0.00,,,0.00,265,Wunderground v.1.15,2013-04-19 16:52:00,
2013-04-19 12:58:00,73.9,64.3,29.55,SSE,148,16.0,22.0,72,0.00,,,0.00,178,Wunderground v.1.15,2013-04-19 16:58:00,
2013-04-19 13:04:00,73.7,64.5,29.54,SSW,198,15.0,17.0,73,0.00,,,0.00,148,Wunderground v.1.15,2013-04-19 17:04:00,
2013-04-19 13:09:00,73.5,64.3,29.54,South,175,13.0,23.0,73,0.00,,,0.00,132,Wunderground v.1.15,2013-04-19 17:09:00,
2013-04-19 13:14:00,73.4,64.2,29.53,SW,227,12.0,13.0,73,0.00,,,0.00,156,Wunderground v.1.15,2013-04-19 17:14:00,
2013-04-19 13:20:00,73.4,64.6,29.55,SW,235,10.0,11.0,74,0.00,,,0.00,260,Wunderground v.1.15,2013-04-19 17:20:00,
2013-04-19 13:25:00,73.7,64.1,29.54,SW,234,11.0,14.0,72,0.00,,,0.00,350,Wunderground v.1.15,2013-04-19 17:25:00,
2013-04-19 13:30:00,74.2,64.6,29.53,SSW,202,12.0,13.0,72,0.00,,,0.00,301,Wunderground v.1.15,2013-04-19 17:30:00,
2013-04-19 13:36:00,74.6,65.0,29.53,SW,219,10.0,13.0,72,0.00,,,0.00,211,Wunderground v.1.15,2013-04-19 17:36:00,
2013-04-19 13:41:00,74.7,64.7,29.53,WSW,242,10.0,14.0,71,0.00,,,0.00,183,Wunderground v.1.15,2013-04-19 17:41:00,
2013-04-19 13:46:00,74.7,64.3,29.53,South,175,13.0,26.0,70,0.00,,,0.00,178,Wunderground v.1.15,2013-04-19 17:46:00,
2013-04-19 13:52:00,74.5,64.1,29.52,SW,227,16.0,20.0,70,0.00,,,0.00,264,Wunderground v.1.15,2013-04-19 17:52:00,
2013-04-19 13:57:00,74.6,64.6,29.54,SW,215,14.0,33.0,71,0.00,,,0.00,264,Wunderground v.1.15,2013-04-19 17:57:00,
2013-04-19 14:03:00,74.9,64.9,29.53,SSW,205,14.0,28.0,71,0.00,,,0.00,559,Wunderground v.1.15,2013-04-19 18:03:00,
2013-04-19 14:08:00,75.4,65.3,29.52,SSW,212,14.0,28.0,71,0.00,,,0.00,376,Wunderground v.1.15,2013-04-19 18:08:00,
2013-04-19 14:14:00,75.4,64.9,29.52,SW,231,15.0,25.0,70,0.00,,,0.00,304,Wunderground v.1.15,2013-04-19 18:14:00,
2013-04-19 14:19:00,75.1,64.6,29.52,SSW,196,15.0,25.0,70,0.00,,,0.00,251,Wunderground v.1.15,2013-04-19 18:19:00,
2013-04-19 14:24:00,74.9,64.9,29.52,SSW,211,17.0,29.0,71,0.00,,,0.00,320,Wunderground v.1.15,2013-04-19 18:24:00,
2013-04-19 14:30:00,75.0,65.0,29.52,South,178,19.0,20.0,71,0.00,,,0.00,376,Wunderground v.1.15,2013-04-19 18:30:00,
2013-04-19 14:35:00,75.1,65.1,29.51,South,175,19.0,30.0,71,0.00,,,0.00,441,Wunderground v.1.15,2013-04-19 18:35:00,
2013-04-19 14:41:00,75.4,65.3,29.51,SSW,199,19.0,26.0,71,0.00,,,0.00,378,Wunderground v.1.15,2013-04-19 18:41:00,
2013-04-19 14:46:00,75.7,65.6,29.51,South,189,16.0,30.0,71,0.00,,,0.00,406,Wunderground v.1.15,2013-04-19 18:46:00,
2013-04-19 14:51:00,75.7,65.6,29.50,SW,235,17.0,17.0,71,0.00,,,0.00,213,Wunderground v.1.15,2013-04-19 18:51:00,
2013-04-19 14:56:00,75.6,65.5,29.50,SW,229,15.0,21.0,71,0.00,,,0.00,165,Wunderground v.1.15,2013-04-19 18:56:00,
2013-04-19 15:02:00,75.3,65.2,29.50,West,259,13.0,17.0,71,0.00,,,0.00,220,Wunderground v.1.15,2013-04-19 19:02:00,
2013-04-19 15:08:00,75.3,66.0,29.50,SW,217,13.0,18.0,73,0.00,,,0.00,207,Wunderground v.1.15,2013-04-19 19:08:00,
2013-04-19 15:13:00,75.0,66.5,29.50,South,190,16.0,25.0,75,0.00,,,0.00,232,Wunderground v.1.15,2013-04-19 19:13:00,
2013-04-19 15:18:00,73.7,66.8,29.51,SSW,211,18.0,25.0,79,0.00,,,0.01,142,Wunderground v.1.15,2013-04-19 19:18:00,
2013-04-19 15:24:00,72.3,66.8,29.51,North,360,16.0,19.0,83,0.00,,,0.01,88,Wunderground v.1.15,2013-04-19 19:24:00,
2013-04-19 15:29:00,71.2,66.5,29.52,SW,223,12.0,23.0,85,0.06,,,0.02,77,Wunderground v.1.15,2013-04-19 19:29:00,
2013-04-19 15:56:00,67.7,66.5,29.55,North,360,8.0,20.0,96,0.94,,,0.11,12,Wunderground v.1.15,2013-04-19 19:56:00,
2013-04-19 16:01:00,66.9,65.4,29.55,West,261,10.0,10.0,95,0.33,,,0.20,40,Wunderground v.1.15,2013-04-19 20:01:00,
2013-04-19 16:06:00,66.2,64.4,29.55,North,360,8.0,10.0,94,0.21,,,0.22,37,Wunderground v.1.15,2013-04-19 20:06:00,
2013-04-19 16:12:00,65.2,63.1,29.55,North,360,7.0,16.0,93,0.14,,,0.23,30,Wunderground v.1.15,2013-04-19 20:12:00,
2013-04-19 16:17:00,63.8,60.8,29.57,North,360,11.0,21.0,90,0.21,,,0.25,25,Wunderground v.1.15,2013-04-19 20:17:00,
2013-04-19 16:23:00,61.9,59.2,29.56,SW,234,14.0,17.0,91,0.15,,,0.26,28,Wunderground v.1.15,2013-04-19 20:23:00,
2013-04-19 16:28:00,60.5,57.9,29.62,NW,315,17.0,20.0,91,0.19,,,0.28,30,Wunderground v.1.15,2013-04-19 20:28:00,
2013-04-19 16:33:00,59.5,57.8,29.63,West,275,20.0,20.0,94,0.36,,,0.31,26,Wunderground v.1.15,2013-04-19 20:33:00,
2013-04-19 16:38:00,58.4,55.8,29.59,West,259,19.0,34.0,91,0.24,,,0.33,23,Wunderground v.1.15,2013-04-19 20:38:00,
2013-04-19 16:43:00,57.7,55.4,29.58,WSW,254,17.0,26.0,92,0.27,,,0.35,37,Wunderground v.1.15,2013-04-19 20:43:00,
2013-04-19 16:49:00,57.2,55.2,29.57,West,275,15.0,26.0,93,0.16,,,0.36,81,Wunderground v.1.15,2013-04-19 20:49:00,
2013-04-19 16:54:00,57.0,55.3,29.57,North,360,13.0,15.0,94,0.14,,,0.37,62,Wunderground v.1.15,2013-04-19 20:54:00,
2013-04-19 16:59:00,56.9,55.2,29.59,North,360,13.0,17.0,94,0.06,,,0.37,53,Wunderground v.1.15,2013-04-19 20:59:00,
2013-04-19 17:05:00,56.8,55.1,29.59,WNW,286,11.0,18.0,94,0.05,,,0.38,30,Wunderground v.1.15,2013-04-19 21:05:00,
2013-04-19 17:10:00,56.7,54.4,29.60,SSE,150,10.0,12.0,92,0.05,,,0.38,23,Wunderground v.1.15,2013-04-19 21:10:00,
2013-04-19 17:16:00,56.5,54.8,29.59,SSE,165,7.0,12.0,94,0.07,,,0.39,23,Wunderground v.1.15,2013-04-19 21:16:00,
2013-04-19 17:21:00,56.2,55.1,29.60,SSE,150,5.0,11.0,96,0.15,,,0.41,18,Wunderground v.1.15,2013-04-19 21:21:00,
2013-04-19 17:26:00,56.0,53.7,29.62,South,175,7.0,11.0,92,0.10,,,0.41,21,Wunderground v.1.15,2013-04-19 21:26:00,
2013-04-19 17:31:00,55.9,54.2,29.63,WSW,255,6.0,9.0,94,0.06,,,0.41,39,Wunderground v.1.15,2013-04-19 21:31:00,
2013-04-19 17:37:00,55.8,54.4,29.64,SSW,200,7.0,9.0,95,0.04,,,0.41,30,Wunderground v.1.15,2013-04-19 21:37:00,
2013-04-19 17:42:00,55.7,54.6,29.64,WSW,244,7.0,17.0,96,0.00,,,0.41,25,Wunderground v.1.15,2013-04-19 21:42:00,
2013-04-19 17:48:00,55.4,53.1,29.65,WSW,238,9.0,17.0,92,0.00,,,0.41,28,Wunderground v.1.15,2013-04-19 21:48:00,
2013-04-19 17:53:00,55.2,52.6,29.65,WSW,246,13.0,28.0,91,0.00,,,0.41,35,Wunderground v.1.15,2013-04-19 21:53:00,
2013-04-19 17:58:00,55.1,52.5,29.64,SSE,167,12.0,28.0,91,0.00,,,0.41,40,Wunderground v.1.15,2013-04-19 21:58:00,
2013-04-19 18:04:00,54.9,52.0,29.65,South,190,9.0,12.0,90,0.00,,,0.41,33,Wunderground v.1.15,2013-04-19 22:04:00,
2013-04-19 18:09:00,54.8,52.8,29.65,WSW,249,7.0,14.0,93,0.00,,,0.41,56,Wunderground v.1.15,2013-04-19 22:09:00,
2013-04-19 18:15:00,54.6,51.4,29.66,North,360,8.0,19.0,89,0.00,,,0.41,67,Wunderground v.1.15,2013-04-19 22:15:00,
2013-04-19 18:20:00,54.5,50.7,29.66,SSW,204,10.0,10.0,87,0.00,,,0.41,77,Wunderground v.1.15,2013-04-19 22:20:00,
2013-04-19 18:25:00,54.4,49.7,29.67,North,360,9.0,20.0,84,0.00,,,0.41,46,Wunderground v.1.15,2013-04-19 22:25:00,
2013-04-19 18:30:00,54.3,50.2,29.67,WNW,298,8.0,8.0,86,0.00,,,0.41,42,Wunderground v.1.15,2013-04-19 22:30:00,
2013-04-19 18:36:00,54.0,49.6,29.67,WSW,242,10.0,23.0,85,0.00,,,0.41,46,Wunderground v.1.15,2013-04-19 22:36:00,
2013-04-19 18:41:00,53.9,48.5,29.67,WSW,255,12.0,14.0,82,0.00,,,0.41,51,Wunderground v.1.15,2013-04-19 22:41:00,
2013-04-19 18:46:00,53.8,48.1,29.67,West,271,10.0,21.0,81,0.00,,,0.41,44,Wunderground v.1.15,2013-04-19 22:46:00,
2013-04-19 18:51:00,53.6,48.2,29.68,WSW,248,8.0,9.0,82,0.00,,,0.41,44,Wunderground v.1.15,2013-04-19 22:51:00,
2013-04-19 18:57:00,53.4,48.4,29.69,West,269,7.0,13.0,83,0.00,,,0.41,25,Wunderground v.1.15,2013-04-19 22:57:00,
2013-04-19 19:02:00,53.3,47.9,29.70,SSW,203,7.0,7.0,82,0.00,,,0.41,19,Wunderground v.1.15,2013-04-19 23:02:00,
2013-04-19 19:07:00,53.1,48.1,29.70,North,360,7.0,14.0,83,0.00,,,0.41,19,Wunderground v.1.15,2013-04-19 23:07:00,
2013-04-19 19:13:00,52.9,47.9,29.71,SSE,148,7.0,11.0,83,0.00,,,0.41,16,Wunderground v.1.15,2013-04-19 23:13:00,
2013-04-19 19:18:00,52.8,46.5,29.70,North,360,9.0,29.0,79,0.00,,,0.41,19,Wunderground v.1.15,2013-04-19 23:18:00,
2013-04-19 19:23:00,52.6,46.9,29.71,SW,228,11.0,18.0,81,0.00,,,0.41,14,Wunderground v.1.15,2013-04-19 23:23:00,
2013-04-19 19:29:00,52.4,46.4,29.71,SW,235,10.0,18.0,80,0.00,,,0.41,9,Wunderground v.1.15,2013-04-19 23:29:00,
2013-04-19 19:34:00,52.2,45.9,29.71,WNW,303,10.0,24.0,79,0.00,,,0.41,9,Wunderground v.1.15,2013-04-19 23:34:00,
2013-04-19 19:39:00,52.2,45.9,29.72,SW,227,10.0,24.0,79,0.00,,,0.41,7,Wunderground v.1.15,2013-04-19 23:39:00,
2013-04-19 19:44:00,52.0,45.4,29.71,SW,214,8.0,18.0,78,0.00,,,0.41,5,Wunderground v.1.15,2013-04-19 23:44:00,
2013-04-19 19:49:00,51.9,45.9,29.72,SW,236,7.0,18.0,80,0.00,,,0.41,5,Wunderground v.1.15,2013-04-19 23:49:00,
2013-04-19 19:55:00,51.9,45.6,29.71,WSW,242,5.0,7.0,79,0.00,,,0.41,0,Wunderground v.1.15,2013-04-19 23:55:00,
2013-04-19 20:00:00,51.8,46.2,29.71,SSW,192,4.0,4.0,81,0.00,,,0.41,7,Wunderground v.1.15,2013-04-20 00:00:00,
2013-04-19 20:06:00,51.6,45.3,29.71,SW,225,4.0,7.0,79,0.00,,,0.41,0,Wunderground v.1.15,2013-04-20 00:06:00,
2013-04-19 20:11:00,51.5,44.9,29.71,South,180,4.0,4.0,78,0.00,,,0.41,0,Wunderground v.1.15,2013-04-20 00:11:00,
2013-04-19 20:16:00,51.4,45.1,29.72,SW,226,4.0,5.0,79,0.00,,,0.41,0,Wunderground v.1.15,2013-04-20 00:16:00,
2013-04-19 20:21:00,51.3,45.3,29.72,SW,231,5.0,11.0,80,0.00,,,0.41,0,Wunderground v.1.15,2013-04-20 00:21:00,
2013-04-19 20:26:00,51.0,44.4,29.72,WSW,251,10.0,21.0,78,0.00,,,0.41,0,Wunderground v.1.15,2013-04-20 00:26:00,
2013-04-19 20:31:00,50.9,44.6,29.73,SW,220,10.0,10.0,79,0.00,,,0.41,0,Wunderground v.1.15,2013-04-20 00:31:00,
2013-04-19 20:37:00,50.8,44.2,29.74,West,259,8.0,17.0,78,0.00,,,0.41,0,Wunderground v.1.15,2013-04-20 00:37:00,
2013-04-19 20:42:00,50.6,43.3,29.74,North,360,10.0,18.0,76,0.00,,,0.41,0,Wunderground v.1.15,2013-04-20 00:42:00,
2013-04-19 20:47:00,50.5,43.6,29.74,WSW,248,11.0,18.0,77,0.00,,,0.41,0,Wunderground v.1.15,2013-04-20 00:47:00,
2013-04-19 20:52:00,50.5,43.6,29.75,West,278,9.0,19.0,77,0.00,,,0.41,0,Wunderground v.1.15,2013-04-20 00:52:00,
2013-04-19 20:58:00,50.4,43.5,29.75,West,261,7.0,19.0,77,0.00,,,0.41,0,Wunderground v.1.15,2013-04-20 00:58:00,
2013-04-19 21:03:00,50.3,43.4,29.75,SW,229,6.0,8.0,77,0.00,,,0.41,0,Wunderground v.1.15,2013-04-20 01:03:00,
2013-04-19 21:09:00,50.2,42.9,29.75,SW,218,6.0,8.0,76,0.00,,,0.41,0,Wunderground v.1.15,2013-04-20 01:09:00,
2013-04-19 21:14:00,50.1,43.5,29.76,SSW,201,6.0,8.0,78,0.00,,,0.41,0,Wunderground v.1.15,2013-04-20 01:14:00,
2013-04-19 21:19:00,50.0,43.1,29.76,WSW,243,8.0,15.0,77,0.00,,,0.41,0,Wunderground v.1.15,2013-04-20 01:19:00,
2013-04-19 21:25:00,50.0,43.4,29.76,WSW,257,7.0,9.0,78,0.00,,,0.41,0,Wunderground v.1.15,2013-04-20 01:25:00,
2013-04-19 21:30:00,49.9,42.6,29.76,WSW,238,4.0,11.0,76,0.00,,,0.41,0,Wunderground v.1.15,2013-04-20 01:30:00,
2013-04-19 21:35:00,49.8,42.5,29.77,WSW,254,8.0,22.0,76,0.00,,,0.41,0,Wunderground v.1.15,2013-04-20 01:35:00,
2013-04-19 21:40:00,49.7,42.4,29.77,WSW,251,13.0,17.0,76,0.00,,,0.41,0,Wunderground v.1.15,2013-04-20 01:40:00,
2013-04-19 21:45:00,49.7,42.4,29.77,WSW,240,13.0,26.0,76,0.00,,,0.41,0,Wunderground v.1.15,2013-04-20 01:45:00,
2013-04-19 21:51:00,49.6,42.0,29.77,SW,223,11.0,13.0,75,0.00,,,0.41,0,Wunderground v.1.15,2013-04-20 01:51:00,
2013-04-19 21:56:00,49.5,41.9,29.77,WNW,291,12.0,20.0,75,0.00,,,0.41,0,Wunderground v.1.15,2013-04-20 01:56:00,
2013-04-19 22:02:00,49.5,41.6,29.77,WSW,242,11.0,14.0,74,0.00,,,0.41,0,Wunderground v.1.15,2013-04-20 02:02:00,
2013-04-19 22:07:00,49.5,41.2,29.77,South,186,11.0,14.0,73,0.00,,,0.41,0,Wunderground v.1.15,2013-04-20 02:07:00,
2013-04-19 22:12:00,49.4,41.8,29.77,SSW,197,9.0,16.0,75,0.00,,,0.41,0,Wunderground v.1.15,2013-04-20 02:12:00,
2013-04-19 22:18:00,49.2,41.3,29.78,West,273,9.0,16.0,74,0.00,,,0.41,0,Wunderground v.1.15,2013-04-20 02:18:00,
2013-04-19 22:23:00,49.1,41.2,29.78,SSW,198,9.0,13.0,74,0.00,,,0.41,0,Wunderground v.1.15,2013-04-20 02:23:00,
2013-04-19 22:28:00,49.0,40.7,29.78,SSW,210,7.0,13.0,73,0.00,,,0.41,0,Wunderground v.1.15,2013-04-20 02:28:00,
2013-04-19 22:33:00,48.9,41.0,29.79,SW,217,7.0,13.0,74,0.00,,,0.41,0,Wunderground v.1.15,2013-04-20 02:33:00,
2013-04-19 22:39:00,48.8,40.5,29.79,SSW,193,8.0,13.0,73,0.00,,,0.41,0,Wunderground v.1.15,2013-04-20 02:39:00,
2013-04-19 22:44:00,48.8,40.9,29.78,South,184,8.0,11.0,74,0.00,,,0.41,0,Wunderground v.1.15,2013-04-20 02:44:00,
2013-04-19 22:49:00,48.6,40.3,29.79,SW,229,9.0,17.0,73,0.00,,,0.41,0,Wunderground v.1.15,2013-04-20 02:49:00,
2013-04-19 22:54:00,48.6,40.0,29.79,SW,232,11.0,23.0,72,0.00,,,0.41,0,Wunderground v.1.15,2013-04-20 02:54:00,
2013-04-19 23:00:00,48.5,40.2,29.79,South,182,9.0,12.0,73,0.00,,,0.41,0,Wunderground v.1.15,2013-04-20 03:00:00,
2013-04-19 23:06:00,48.4,39.8,29.80,SSW,195,7.0,13.0,72,0.00,,,0.41,0,Wunderground v.1.15,2013-04-20 03:06:00,
2013-04-19 23:11:00,48.3,40.0,29.80,SSE,163,8.0,15.0,73,0.00,,,0.41,0,Wunderground v.1.15,2013-04-20 03:11:00,
2013-04-19 23:16:00,48.3,40.0,29.80,West,261,8.0,15.0,73,0.00,,,0.41,0,Wunderground v.1.15,2013-04-20 03:16:00,
2013-04-19 23:21:00,48.3,40.7,29.80,SSW,211,7.0,10.0,75,0.00,,,0.41,0,Wunderground v.1.15,2013-04-20 03:21:00,
2013-04-19 23:26:00,48.3,40.4,29.80,West,267,5.0,10.0,74,0.00,,,0.41,0,Wunderground v.1.15,2013-04-20 03:26:00,
2013-04-19 23:32:00,48.2,40.6,29.80,South,182,5.0,14.0,75,0.00,,,0.41,0,Wunderground v.1.15,2013-04-20 03:32:00,
2013-04-19 23:37:00,48.1,40.2,29.80,SSW,213,5.0,14.0,74,0.00,,,0.41,0,Wunderground v.1.15,2013-04-20 03:37:00,
2013-04-19 23:42:00,48.0,40.1,29.79,SW,221,5.0,6.0,74,0.00,,,0.41,0,Wunderground v.1.15,2013-04-20 03:42:00,
2013-04-19 23:47:00,48.0,40.1,29.79,SE,135,5.0,10.0,74,0.00,,,0.41,0,Wunderground v.1.15,2013-04-20 03:47:00,
2013-04-19 23:53:00,48.1,39.9,29.80,WNW,296,7.0,7.0,73,0.00,,,0.41,0,Wunderground v.1.15,2013-04-20 03:53:00,
2013-04-19 23:58:00,48.1,40.2,29.79,West,266,7.0,9.0,74,0.00,,,0.00,0,Wunderground v.1.15,2013-04-20 03:58:00,